sensor_id;sensor_type;location;lat;lon;timestamp;temperature;humidity
67064;SHT30;58476;48.072;11.970;2023-11-21T00:01:45;20.46;50.14
67064;SHT30;58476;48.072;11.970;2023-11-21T00:04:11;20.45;50.30
67064;SHT30;58476;48.072;11.970;2023-11-21T00:06:36;20.45;50.33
67064;SHT30;58476;48.072;11.970;2023-11-21T00:09:01;20.46;50.02
67064;SHT30;58476;48.072;11.970;2023-11-21T00:11:27;20.49;50.01
67064;SHT30;58476;48.072;11.970;2023-11-21T00:13:52;20.49;50.03
67064;SHT30;58476;48.072;11.970;2023-11-21T00:16:17;20.50;50.02
67064;SHT30;58476;48.072;11.970;2023-11-21T00:18:43;20.52;49.82
67064;SHT30;58476;48.072;11.970;2023-11-21T00:21:08;20.52;49.77
67064;SHT30;58476;48.072;11.970;2023-11-21T00:23:34;20.50;49.64
67064;SHT30;58476;48.072;11.970;2023-11-21T00:25:59;20.53;49.39
67064;SHT30;58476;48.072;11.970;2023-11-21T00:28:26;20.52;49.27
67064;SHT30;58476;48.072;11.970;2023-11-21T00:30:51;20.53;49.40
67064;SHT30;58476;48.072;11.970;2023-11-21T00:33:17;20.52;48.98
67064;SHT30;58476;48.072;11.970;2023-11-21T00:35:42;20.55;48.97
67064;SHT30;58476;48.072;11.970;2023-11-21T00:38:07;20.56;49.16
67064;SHT30;58476;48.072;11.970;2023-11-21T00:40:33;20.55;49.29
67064;SHT30;58476;48.072;11.970;2023-11-21T00:42:58;20.57;49.02
67064;SHT30;58476;48.072;11.970;2023-11-21T00:45:23;20.53;49.00
67064;SHT30;58476;48.072;11.970;2023-11-21T00:47:50;20.55;49.45
67064;SHT30;58476;48.072;11.970;2023-11-21T00:50:15;20.55;49.64
67064;SHT30;58476;48.072;11.970;2023-11-21T00:52:40;20.47;49.64
67064;SHT30;58476;48.072;11.970;2023-11-21T00:55:06;20.52;49.65
67064;SHT30;58476;48.072;11.970;2023-11-21T00:57:31;20.50;49.67
67064;SHT30;58476;48.072;11.970;2023-11-21T00:59:57;20.47;49.72
67064;SHT30;58476;48.072;11.970;2023-11-21T01:02:22;20.47;49.82
67064;SHT30;58476;48.072;11.970;2023-11-21T01:04:47;20.46;49.72
67064;SHT30;58476;48.072;11.970;2023-11-21T01:07:14;20.45;49.68
67064;SHT30;58476;48.072;11.970;2023-11-21T01:09:39;20.39;49.66
67064;SHT30;58476;48.072;11.970;2023-11-21T01:12:05;20.39;49.72
67064;SHT30;58476;48.072;11.970;2023-11-21T01:14:31;20.38;49.73
67064;SHT30;58476;48.072;11.970;2023-11-21T01:16:56;20.35;49.70
67064;SHT30;58476;48.072;11.970;2023-11-21T01:19:21;20.35;49.72
67064;SHT30;58476;48.072;11.970;2023-11-21T01:21:47;20.32;49.75
67064;SHT30;58476;48.072;11.970;2023-11-21T01:24:12;20.33;49.77
67064;SHT30;58476;48.072;11.970;2023-11-21T01:26:38;20.29;49.73
67064;SHT30;58476;48.072;11.970;2023-11-21T01:29:03;20.30;49.81
67064;SHT30;58476;48.072;11.970;2023-11-21T01:31:28;20.29;49.78
67064;SHT30;58476;48.072;11.970;2023-11-21T01:33:54;20.28;49.88
67064;SHT30;58476;48.072;11.970;2023-11-21T01:36:19;20.25;49.78
67064;SHT30;58476;48.072;11.970;2023-11-21T01:38:44;20.24;49.79
67064;SHT30;58476;48.072;11.970;2023-11-21T01:41:10;20.25;49.73
67064;SHT30;58476;48.072;11.970;2023-11-21T01:43:35;20.24;49.92
67064;SHT30;58476;48.072;11.970;2023-11-21T01:46:00;20.26;49.80
67064;SHT30;58476;48.072;11.970;2023-11-21T01:48:27;20.22;49.66
67064;SHT30;58476;48.072;11.970;2023-11-21T01:50:52;20.18;49.73
67064;SHT30;58476;48.072;11.970;2023-11-21T01:53:18;20.21;49.77
67064;SHT30;58476;48.072;11.970;2023-11-21T01:55:45;20.18;49.79
67064;SHT30;58476;48.072;11.970;2023-11-21T01:58:10;20.17;49.77
67064;SHT30;58476;48.072;11.970;2023-11-21T02:00:36;20.17;49.78
67064;SHT30;58476;48.072;11.970;2023-11-21T02:03:01;20.17;49.80
67064;SHT30;58476;48.072;11.970;2023-11-21T02:05:27;20.15;49.76
67064;SHT30;58476;48.072;11.970;2023-11-21T02:07:52;20.12;49.70
67064;SHT30;58476;48.072;11.970;2023-11-21T02:10:18;20.14;49.65
67064;SHT30;58476;48.072;11.970;2023-11-21T02:12:44;20.12;49.54
67064;SHT30;58476;48.072;11.970;2023-11-21T02:15:13;20.12;49.34
67064;SHT30;58476;48.072;11.970;2023-11-21T02:17:39;20.15;49.22
67064;SHT30;58476;48.072;11.970;2023-11-21T02:20:04;20.17;49.20
67064;SHT30;58476;48.072;11.970;2023-11-21T02:22:32;20.18;49.08
67064;SHT30;58476;48.072;11.970;2023-11-21T02:25:00;20.21;49.05
67064;SHT30;58476;48.072;11.970;2023-11-21T02:27:25;20.21;49.06
67064;SHT30;58476;48.072;11.970;2023-11-21T02:29:51;20.24;49.11
67064;SHT30;58476;48.072;11.970;2023-11-21T02:32:16;20.22;49.05
67064;SHT30;58476;48.072;11.970;2023-11-21T02:34:41;20.24;49.13
67064;SHT30;58476;48.072;11.970;2023-11-21T02:37:08;20.26;49.17
67064;SHT30;58476;48.072;11.970;2023-11-21T02:39:33;20.25;48.96
67064;SHT30;58476;48.072;11.970;2023-11-21T02:41:58;20.26;49.28
67064;SHT30;58476;48.072;11.970;2023-11-21T02:44:24;20.28;49.27
67064;SHT30;58476;48.072;11.970;2023-11-21T02:46:49;20.28;48.95
67064;SHT30;58476;48.072;11.970;2023-11-21T02:49:14;20.30;49.24
67064;SHT30;58476;48.072;11.970;2023-11-21T02:51:40;20.28;49.27
67064;SHT30;58476;48.072;11.970;2023-11-21T02:54:06;20.28;49.34
67064;SHT30;58476;48.072;11.970;2023-11-21T02:56:31;20.29;49.25
67064;SHT30;58476;48.072;11.970;2023-11-21T02:58:57;20.29;48.75
67064;SHT30;58476;48.072;11.970;2023-11-21T03:01:23;20.26;49.05
67064;SHT30;58476;48.072;11.970;2023-11-21T03:03:49;20.28;49.35
67064;SHT30;58476;48.072;11.970;2023-11-21T03:06:14;20.26;49.50
67064;SHT30;58476;48.072;11.970;2023-11-21T03:08:39;20.24;49.49
67064;SHT30;58476;48.072;11.970;2023-11-21T03:11:05;20.19;49.43
67064;SHT30;58476;48.072;11.970;2023-11-21T03:13:30;20.22;49.36
67064;SHT30;58476;48.072;11.970;2023-11-21T03:15:57;20.22;49.40
67064;SHT30;58476;48.072;11.970;2023-11-21T03:18:22;20.19;49.53
67064;SHT30;58476;48.072;11.970;2023-11-21T03:20:48;20.17;49.46
67064;SHT30;58476;48.072;11.970;2023-11-21T03:23:13;20.15;49.49
67064;SHT30;58476;48.072;11.970;2023-11-21T03:25:39;20.14;49.50
67064;SHT30;58476;48.072;11.970;2023-11-21T03:28:04;20.12;49.59
67064;SHT30;58476;48.072;11.970;2023-11-21T03:30:30;20.11;49.61
67064;SHT30;58476;48.072;11.970;2023-11-21T03:32:55;20.11;49.60
67064;SHT30;58476;48.072;11.970;2023-11-21T03:35:21;20.11;49.63
67064;SHT30;58476;48.072;11.970;2023-11-21T03:37:46;20.07;49.58
67064;SHT30;58476;48.072;11.970;2023-11-21T03:40:12;20.07;49.49
67064;SHT30;58476;48.072;11.970;2023-11-21T03:42:37;20.07;49.67
67064;SHT30;58476;48.072;11.970;2023-11-21T03:45:03;20.04;49.80
67064;SHT30;58476;48.072;11.970;2023-11-21T03:47:28;20.02;49.75
67064;SHT30;58476;48.072;11.970;2023-11-21T03:49:53;20.04;49.75
67064;SHT30;58476;48.072;11.970;2023-11-21T03:52:19;20.02;49.74
67064;SHT30;58476;48.072;11.970;2023-11-21T03:54:44;19.98;49.73
67064;SHT30;58476;48.072;11.970;2023-11-21T03:57:10;19.97;49.70
67064;SHT30;58476;48.072;11.970;2023-11-21T03:59:35;19.99;49.69
67064;SHT30;58476;48.072;11.970;2023-11-21T04:02:01;19.99;49.73
67064;SHT30;58476;48.072;11.970;2023-11-21T04:04:26;19.95;49.76
67064;SHT30;58476;48.072;11.970;2023-11-21T04:06:51;19.95;49.83
67064;SHT30;58476;48.072;11.970;2023-11-21T04:09:17;19.95;49.77
67064;SHT30;58476;48.072;11.970;2023-11-21T04:11:42;19.94;49.78
67064;SHT30;58476;48.072;11.970;2023-11-21T04:14:08;19.91;49.75
67064;SHT30;58476;48.072;11.970;2023-11-21T04:16:34;19.92;49.75
67064;SHT30;58476;48.072;11.970;2023-11-21T04:18:59;19.91;49.81
67064;SHT30;58476;48.072;11.970;2023-11-21T04:21:24;19.88;49.78
67064;SHT30;58476;48.072;11.970;2023-11-21T04:23:50;19.89;49.79
67064;SHT30;58476;48.072;11.970;2023-11-21T04:26:15;19.88;49.70
67064;SHT30;58476;48.072;11.970;2023-11-21T04:28:41;19.89;49.67
67064;SHT30;58476;48.072;11.970;2023-11-21T04:31:06;19.89;49.63
67064;SHT30;58476;48.072;11.970;2023-11-21T04:33:31;19.89;49.44
67064;SHT30;58476;48.072;11.970;2023-11-21T04:35:56;19.94;49.33
67064;SHT30;58476;48.072;11.970;2023-11-21T04:38:22;19.97;49.29
67064;SHT30;58476;48.072;11.970;2023-11-21T04:40:47;19.95;49.27
67064;SHT30;58476;48.072;11.970;2023-11-21T04:43:12;19.98;49.29
67064;SHT30;58476;48.072;11.970;2023-11-21T04:45:38;19.99;49.17
67064;SHT30;58476;48.072;11.970;2023-11-21T04:48:03;20.02;49.45
67064;SHT30;58476;48.072;11.970;2023-11-21T04:50:29;20.02;49.21
67064;SHT30;58476;48.072;11.970;2023-11-21T04:52:54;20.07;49.15
67064;SHT30;58476;48.072;11.970;2023-11-21T04:55:20;20.04;49.32
67064;SHT30;58476;48.072;11.970;2023-11-21T04:57:45;20.05;49.15
67064;SHT30;58476;48.072;11.970;2023-11-21T05:00:11;20.07;49.49
67064;SHT30;58476;48.072;11.970;2023-11-21T05:02:36;20.07;49.39
67064;SHT30;58476;48.072;11.970;2023-11-21T05:05:02;20.15;49.83
67064;SHT30;58476;48.072;11.970;2023-11-21T05:07:27;20.18;49.69
67064;SHT30;58476;48.072;11.970;2023-11-21T05:09:53;20.15;49.62
67064;SHT30;58476;48.072;11.970;2023-11-21T05:12:18;20.24;49.62
67064;SHT30;58476;48.072;11.970;2023-11-21T05:14:43;20.24;49.72
67064;SHT30;58476;48.072;11.970;2023-11-21T05:17:09;20.22;49.65
67064;SHT30;58476;48.072;11.970;2023-11-21T05:19:34;20.26;49.88
67064;SHT30;58476;48.072;11.970;2023-11-21T05:21:59;20.28;49.99
67064;SHT30;58476;48.072;11.970;2023-11-21T05:24:25;20.32;50.15
67064;SHT30;58476;48.072;11.970;2023-11-21T05:26:50;20.33;50.07
67064;SHT30;58476;48.072;11.970;2023-11-21T05:29:15;20.28;50.32
67064;SHT30;58476;48.072;11.970;2023-11-21T05:31:40;20.29;50.54
67064;SHT30;58476;48.072;11.970;2023-11-21T05:34:06;20.26;50.67
67064;SHT30;58476;48.072;11.970;2023-11-21T05:36:31;20.26;50.24
67064;SHT30;58476;48.072;11.970;2023-11-21T05:38:56;20.25;50.52
67064;SHT30;58476;48.072;11.970;2023-11-21T05:41:22;20.22;50.47
67064;SHT30;58476;48.072;11.970;2023-11-21T05:43:47;20.17;50.04
67064;SHT30;58476;48.072;11.970;2023-11-21T05:46:13;20.15;50.21
67064;SHT30;58476;48.072;11.970;2023-11-21T05:48:38;20.15;50.64
67064;SHT30;58476;48.072;11.970;2023-11-21T05:51:06;20.18;51.19
67064;SHT30;58476;48.072;11.970;2023-11-21T05:53:32;20.17;51.82
67064;SHT30;58476;48.072;11.970;2023-11-21T05:55:57;20.21;51.49
67064;SHT30;58476;48.072;11.970;2023-11-21T05:58:22;20.21;51.65
67064;SHT30;58476;48.072;11.970;2023-11-21T06:00:48;20.21;51.63
67064;SHT30;58476;48.072;11.970;2023-11-21T06:03:13;20.21;51.88
67064;SHT30;58476;48.072;11.970;2023-11-21T06:05:38;20.22;52.01
67064;SHT30;58476;48.072;11.970;2023-11-21T06:08:04;20.24;51.91
67064;SHT30;58476;48.072;11.970;2023-11-21T06:10:29;20.18;51.78
67064;SHT30;58476;48.072;11.970;2023-11-21T06:12:55;20.19;51.61
67064;SHT30;58476;48.072;11.970;2023-11-21T06:15:20;20.21;51.73
67064;SHT30;58476;48.072;11.970;2023-11-21T06:17:45;20.17;51.84
67064;SHT30;58476;48.072;11.970;2023-11-21T06:20:11;20.15;51.87
67064;SHT30;58476;48.072;11.970;2023-11-21T06:22:37;20.17;51.90
67064;SHT30;58476;48.072;11.970;2023-11-21T06:25:03;20.11;51.77
67064;SHT30;58476;48.072;11.970;2023-11-21T06:27:28;20.12;51.77
67064;SHT30;58476;48.072;11.970;2023-11-21T06:29:54;20.11;51.77
67064;SHT30;58476;48.072;11.970;2023-11-21T06:32:19;20.11;51.63
67064;SHT30;58476;48.072;11.970;2023-11-21T06:34:44;20.12;51.69
67064;SHT30;58476;48.072;11.970;2023-11-21T06:37:10;20.11;51.59
67064;SHT30;58476;48.072;11.970;2023-11-21T06:39:35;20.12;51.04
67064;SHT30;58476;48.072;11.970;2023-11-21T06:42:00;20.11;51.08
67064;SHT30;58476;48.072;11.970;2023-11-21T06:44:26;20.12;50.36
67064;SHT30;58476;48.072;11.970;2023-11-21T06:46:51;20.12;50.15
67064;SHT30;58476;48.072;11.970;2023-11-21T06:49:16;20.12;50.08
67064;SHT30;58476;48.072;11.970;2023-11-21T06:51:42;20.14;50.04
67064;SHT30;58476;48.072;11.970;2023-11-21T06:54:07;20.12;50.02
67064;SHT30;58476;48.072;11.970;2023-11-21T06:56:32;20.15;50.00
67064;SHT30;58476;48.072;11.970;2023-11-21T06:58:58;20.15;49.98
67064;SHT30;58476;48.072;11.970;2023-11-21T07:01:23;20.15;49.92
67064;SHT30;58476;48.072;11.970;2023-11-21T07:03:48;20.17;49.89
67064;SHT30;58476;48.072;11.970;2023-11-21T07:06:14;20.15;49.83
67064;SHT30;58476;48.072;11.970;2023-11-21T07:08:39;20.15;49.87
67064;SHT30;58476;48.072;11.970;2023-11-21T07:11:04;20.17;49.93
67064;SHT30;58476;48.072;11.970;2023-11-21T07:13:30;20.17;49.81
67064;SHT30;58476;48.072;11.970;2023-11-21T07:15:56;20.17;49.79
67064;SHT30;58476;48.072;11.970;2023-11-21T07:18:21;20.14;49.92
67064;SHT30;58476;48.072;11.970;2023-11-21T07:20:46;20.12;49.94
67064;SHT30;58476;48.072;11.970;2023-11-21T07:23:12;20.09;50.25
67064;SHT30;58476;48.072;11.970;2023-11-21T07:25:37;20.07;50.00
67064;SHT30;58476;48.072;11.970;2023-11-21T07:28:02;20.08;50.51
67064;SHT30;58476;48.072;11.970;2023-11-21T07:30:28;20.05;50.33
67064;SHT30;58476;48.072;11.970;2023-11-21T07:32:53;20.04;50.30
67064;SHT30;58476;48.072;11.970;2023-11-21T07:35:18;20.04;50.38
67064;SHT30;58476;48.072;11.970;2023-11-21T07:37:44;20.02;50.29
67064;SHT30;58476;48.072;11.970;2023-11-21T07:40:10;20.01;50.17
67064;SHT30;58476;48.072;11.970;2023-11-21T07:42:35;19.98;50.25
67064;SHT30;58476;48.072;11.970;2023-11-21T07:45:00;19.95;50.12
67064;SHT30;58476;48.072;11.970;2023-11-21T07:47:26;19.95;50.18
67064;SHT30;58476;48.072;11.970;2023-11-21T07:49:51;19.94;50.34
67064;SHT30;58476;48.072;11.970;2023-11-21T07:52:16;19.94;50.18
67064;SHT30;58476;48.072;11.970;2023-11-21T07:54:42;19.91;50.39
67064;SHT30;58476;48.072;11.970;2023-11-21T07:57:07;19.91;50.40
67064;SHT30;58476;48.072;11.970;2023-11-21T07:59:32;19.89;50.54
67064;SHT30;58476;48.072;11.970;2023-11-21T08:01:58;19.87;50.57
67064;SHT30;58476;48.072;11.970;2023-11-21T08:04:23;19.88;50.64
67064;SHT30;58476;48.072;11.970;2023-11-21T08:06:48;19.87;50.67
67064;SHT30;58476;48.072;11.970;2023-11-21T08:09:14;19.82;50.48
67064;SHT30;58476;48.072;11.970;2023-11-21T08:11:39;19.84;50.57
67064;SHT30;58476;48.072;11.970;2023-11-21T08:14:05;19.82;50.42
67064;SHT30;58476;48.072;11.970;2023-11-21T08:16:30;19.82;50.53
67064;SHT30;58476;48.072;11.970;2023-11-21T08:18:56;19.78;50.54
67064;SHT30;58476;48.072;11.970;2023-11-21T08:21:21;19.81;50.39
67064;SHT30;58476;48.072;11.970;2023-11-21T08:23:46;19.79;50.40
67064;SHT30;58476;48.072;11.970;2023-11-21T08:26:12;19.79;50.69
67064;SHT30;58476;48.072;11.970;2023-11-21T08:28:37;19.79;50.63
67064;SHT30;58476;48.072;11.970;2023-11-21T08:31:03;19.79;50.56
67064;SHT30;58476;48.072;11.970;2023-11-21T08:33:28;19.77;50.60
67064;SHT30;58476;48.072;11.970;2023-11-21T08:35:53;19.74;50.52
67064;SHT30;58476;48.072;11.970;2023-11-21T08:38:19;19.78;50.56
67064;SHT30;58476;48.072;11.970;2023-11-21T08:40:44;19.74;50.64
67064;SHT30;58476;48.072;11.970;2023-11-21T08:43:09;19.78;50.41
67064;SHT30;58476;48.072;11.970;2023-11-21T08:45:35;19.77;50.35
67064;SHT30;58476;48.072;11.970;2023-11-21T08:48:01;19.74;49.93
67064;SHT30;58476;48.072;11.970;2023-11-21T08:50:26;19.77;50.05
67064;SHT30;58476;48.072;11.970;2023-11-21T08:52:51;19.79;50.05
67064;SHT30;58476;48.072;11.970;2023-11-21T08:55:17;19.79;50.02
67064;SHT30;58476;48.072;11.970;2023-11-21T08:57:44;19.82;49.78
67064;SHT30;58476;48.072;11.970;2023-11-21T09:00:10;19.85;49.96
67064;SHT30;58476;48.072;11.970;2023-11-21T09:02:35;19.87;50.23
67064;SHT30;58476;48.072;11.970;2023-11-21T09:05:01;19.91;50.10
67064;SHT30;58476;48.072;11.970;2023-11-21T09:07:26;19.89;49.96
67064;SHT30;58476;48.072;11.970;2023-11-21T09:09:51;19.92;50.18
67064;SHT30;58476;48.072;11.970;2023-11-21T09:12:17;19.97;50.07
67064;SHT30;58476;48.072;11.970;2023-11-21T09:14:43;19.94;49.98
67064;SHT30;58476;48.072;11.970;2023-11-21T09:17:09;19.97;50.03
67064;SHT30;58476;48.072;11.970;2023-11-21T09:19:35;19.98;50.12
67064;SHT30;58476;48.072;11.970;2023-11-21T09:22:00;19.99;50.13
67064;SHT30;58476;48.072;11.970;2023-11-21T09:24:26;20.01;50.12
67064;SHT30;58476;48.072;11.970;2023-11-21T09:26:51;20.02;50.11
67064;SHT30;58476;48.072;11.970;2023-11-21T09:29:16;20.04;50.05
67064;SHT30;58476;48.072;11.970;2023-11-21T09:31:41;19.99;50.20
67064;SHT30;58476;48.072;11.970;2023-11-21T09:34:07;19.99;50.10
67064;SHT30;58476;48.072;11.970;2023-11-21T09:36:32;19.98;50.18
67064;SHT30;58476;48.072;11.970;2023-11-21T09:38:57;19.95;49.66
67064;SHT30;58476;48.072;11.970;2023-11-21T09:41:37;19.92;49.42
67064;SHT30;58476;48.072;11.970;2023-11-21T09:44:08;19.94;49.56
67064;SHT30;58476;48.072;11.970;2023-11-21T09:46:34;19.94;49.50
67064;SHT30;58476;48.072;11.970;2023-11-21T09:49:02;19.89;49.80
67064;SHT30;58476;48.072;11.970;2023-11-21T09:51:29;19.89;49.78
67064;SHT30;58476;48.072;11.970;2023-11-21T09:53:56;19.88;49.88
67064;SHT30;58476;48.072;11.970;2023-11-21T09:56:22;19.87;49.84
67064;SHT30;58476;48.072;11.970;2023-11-21T09:58:50;19.84;49.83
67064;SHT30;58476;48.072;11.970;2023-11-21T10:01:17;19.82;49.89
67064;SHT30;58476;48.072;11.970;2023-11-21T10:03:43;19.82;50.01
67064;SHT30;58476;48.072;11.970;2023-11-21T10:06:09;19.81;49.99
67064;SHT30;58476;48.072;11.970;2023-11-21T10:08:37;19.81;50.15
67064;SHT30;58476;48.072;11.970;2023-11-21T10:11:04;19.81;49.98
67064;SHT30;58476;48.072;11.970;2023-11-21T10:13:31;19.77;49.83
67064;SHT30;58476;48.072;11.970;2023-11-21T10:15:56;19.77;50.11
67064;SHT30;58476;48.072;11.970;2023-11-21T10:18:22;19.77;50.07
67064;SHT30;58476;48.072;11.970;2023-11-21T10:20:47;19.77;50.05
67064;SHT30;58476;48.072;11.970;2023-11-21T10:23:13;19.75;50.10
67064;SHT30;58476;48.072;11.970;2023-11-21T10:25:39;19.75;50.06
67064;SHT30;58476;48.072;11.970;2023-11-21T10:28:04;19.75;50.02
67064;SHT30;58476;48.072;11.970;2023-11-21T10:30:37;19.73;49.99
67064;SHT30;58476;48.072;11.970;2023-11-21T10:33:04;19.73;49.99
67064;SHT30;58476;48.072;11.970;2023-11-21T10:35:45;19.73;50.12
67064;SHT30;58476;48.072;11.970;2023-11-21T10:38:11;19.71;50.12
67064;SHT30;58476;48.072;11.970;2023-11-21T10:40:40;19.70;50.09
67064;SHT30;58476;48.072;11.970;2023-11-21T10:43:09;19.71;50.08
67064;SHT30;58476;48.072;11.970;2023-11-21T10:45:35;19.71;50.18
67064;SHT30;58476;48.072;11.970;2023-11-21T10:48:00;19.70;50.15
67064;SHT30;58476;48.072;11.970;2023-11-21T10:50:26;19.67;50.16
67064;SHT30;58476;48.072;11.970;2023-11-21T10:52:51;19.67;50.29
67064;SHT30;58476;48.072;11.970;2023-11-21T10:55:17;19.66;50.20
67064;SHT30;58476;48.072;11.970;2023-11-21T10:57:45;19.63;50.18
67064;SHT30;58476;48.072;11.970;2023-11-21T11:00:12;19.66;49.99
67064;SHT30;58476;48.072;11.970;2023-11-21T11:02:39;19.63;49.79
67064;SHT30;58476;48.072;11.970;2023-11-21T11:05:04;19.63;49.71
67064;SHT30;58476;48.072;11.970;2023-11-21T11:07:31;19.64;49.53
67064;SHT30;58476;48.072;11.970;2023-11-21T11:09:58;19.64;50.43
67064;SHT30;58476;48.072;11.970;2023-11-21T11:12:24;19.73;50.33
67064;SHT30;58476;48.072;11.970;2023-11-21T11:14:51;19.74;50.38
67064;SHT30;58476;48.072;11.970;2023-11-21T11:17:16;19.75;50.28
67064;SHT30;58476;48.072;11.970;2023-11-21T11:19:42;19.77;50.12
67064;SHT30;58476;48.072;11.970;2023-11-21T11:30:15;19.84;49.90
67064;SHT30;58476;48.072;11.970;2023-11-21T11:32:56;19.84;49.91
67064;SHT30;58476;48.072;11.970;2023-11-21T11:35:45;19.84;49.98
67064;SHT30;58476;48.072;11.970;2023-11-21T11:38:10;19.87;49.79
67064;SHT30;58476;48.072;11.970;2023-11-21T11:40:54;19.87;49.94
67064;SHT30;58476;48.072;11.970;2023-11-21T11:43:26;19.89;49.54
67064;SHT30;58476;48.072;11.970;2023-11-21T11:45:55;19.91;49.70
67064;SHT30;58476;48.072;11.970;2023-11-21T11:48:21;19.89;49.67
67064;SHT30;58476;48.072;11.970;2023-11-21T11:51:14;19.89;49.76
67064;SHT30;58476;48.072;11.970;2023-11-21T11:53:43;19.87;49.76
67064;SHT30;58476;48.072;11.970;2023-11-21T11:56:29;19.84;49.72
67064;SHT30;58476;48.072;11.970;2023-11-21T11:58:56;19.85;49.29
67064;SHT30;58476;48.072;11.970;2023-11-21T12:01:23;19.82;49.09
67064;SHT30;58476;48.072;11.970;2023-11-21T12:06:36;19.78;49.01
67064;SHT30;58476;48.072;11.970;2023-11-21T12:09:02;19.79;49.03
67064;SHT30;58476;48.072;11.970;2023-11-21T12:11:31;19.78;49.12
67064;SHT30;58476;48.072;11.970;2023-11-21T12:13:58;19.75;49.22
67064;SHT30;58476;48.072;11.970;2023-11-21T12:16:25;19.74;49.32
67064;SHT30;58476;48.072;11.970;2023-11-21T12:18:50;19.73;49.31
67064;SHT30;58476;48.072;11.970;2023-11-21T12:21:16;19.73;49.28
67064;SHT30;58476;48.072;11.970;2023-11-21T12:23:41;19.73;49.33
67064;SHT30;58476;48.072;11.970;2023-11-21T12:26:06;19.71;49.27
67064;SHT30;58476;48.072;11.970;2023-11-21T12:28:32;19.71;49.21
67064;SHT30;58476;48.072;11.970;2023-11-21T12:30:57;19.71;49.58
67064;SHT30;58476;48.072;11.970;2023-11-21T12:33:22;19.70;49.69
67064;SHT30;58476;48.072;11.970;2023-11-21T12:35:48;19.70;49.60
67064;SHT30;58476;48.072;11.970;2023-11-21T12:38:13;19.71;49.47
67064;SHT30;58476;48.072;11.970;2023-11-21T12:40:38;19.70;49.66
67064;SHT30;58476;48.072;11.970;2023-11-21T12:43:04;19.74;49.67
67064;SHT30;58476;48.072;11.970;2023-11-21T12:45:30;19.73;49.78
67064;SHT30;58476;48.072;11.970;2023-11-21T12:48:03;19.71;49.83
67064;SHT30;58476;48.072;11.970;2023-11-21T12:50:31;19.77;50.01
67064;SHT30;58476;48.072;11.970;2023-11-21T12:53:04;19.77;50.10
67064;SHT30;58476;48.072;11.970;2023-11-21T12:55:34;19.78;50.08
67064;SHT30;58476;48.072;11.970;2023-11-21T12:58:01;19.81;50.03
67064;SHT30;58476;48.072;11.970;2023-11-21T13:00:44;19.87;50.13
67064;SHT30;58476;48.072;11.970;2023-11-21T13:03:11;19.87;50.17
67064;SHT30;58476;48.072;11.970;2023-11-21T13:05:37;19.92;50.13
67064;SHT30;58476;48.072;11.970;2023-11-21T13:08:03;19.95;50.07
67064;SHT30;58476;48.072;11.970;2023-11-21T13:10:31;19.95;49.98
67064;SHT30;58476;48.072;11.970;2023-11-21T13:12:58;19.97;50.20
67064;SHT30;58476;48.072;11.970;2023-11-21T13:15:24;19.99;50.19
67064;SHT30;58476;48.072;11.970;2023-11-21T13:17:49;20.01;49.79
67064;SHT30;58476;48.072;11.970;2023-11-21T13:20:15;20.07;49.84
67064;SHT30;58476;48.072;11.970;2023-11-21T13:22:45;20.08;50.20
67064;SHT30;58476;48.072;11.970;2023-11-21T13:25:10;20.14;51.74
67064;SHT30;58476;48.072;11.970;2023-11-21T13:27:36;20.18;50.73
67064;SHT30;58476;48.072;11.970;2023-11-21T13:30:01;20.19;51.21
67064;SHT30;58476;48.072;11.970;2023-11-21T13:32:26;20.18;51.42
67064;SHT30;58476;48.072;11.970;2023-11-21T13:34:52;20.21;51.36
67064;SHT30;58476;48.072;11.970;2023-11-21T13:37:17;20.21;50.74
67064;SHT30;58476;48.072;11.970;2023-11-21T13:39:42;20.18;51.06
67064;SHT30;58476;48.072;11.970;2023-11-21T13:42:08;20.17;50.84
67064;SHT30;58476;48.072;11.970;2023-11-21T13:44:33;20.17;50.83
67064;SHT30;58476;48.072;11.970;2023-11-21T13:46:58;20.11;50.94
67064;SHT30;58476;48.072;11.970;2023-11-21T13:49:24;20.05;51.17
67064;SHT30;58476;48.072;11.970;2023-11-21T13:51:49;19.98;50.36
67064;SHT30;58476;48.072;11.970;2023-11-21T13:54:15;19.97;50.38
67064;SHT30;58476;48.072;11.970;2023-11-21T13:56:41;19.91;50.25
67064;SHT30;58476;48.072;11.970;2023-11-21T13:59:06;19.91;50.21
67064;SHT30;58476;48.072;11.970;2023-11-21T14:01:32;19.91;50.28
67064;SHT30;58476;48.072;11.970;2023-11-21T14:04:03;19.87;50.26
67064;SHT30;58476;48.072;11.970;2023-11-21T14:06:30;19.85;50.26
67064;SHT30;58476;48.072;11.970;2023-11-21T14:08:55;19.85;50.24
67064;SHT30;58476;48.072;11.970;2023-11-21T14:11:20;19.82;50.37
67064;SHT30;58476;48.072;11.970;2023-11-21T14:13:46;19.82;50.28
67064;SHT30;58476;48.072;11.970;2023-11-21T14:16:11;19.81;50.25
67064;SHT30;58476;48.072;11.970;2023-11-21T14:18:36;19.82;50.53
67064;SHT30;58476;48.072;11.970;2023-11-21T14:21:02;19.79;50.37
67064;SHT30;58476;48.072;11.970;2023-11-21T14:23:27;19.79;50.39
67064;SHT30;58476;48.072;11.970;2023-11-21T14:25:52;19.77;50.43
67064;SHT30;58476;48.072;11.970;2023-11-21T14:28:18;19.77;50.50
67064;SHT30;58476;48.072;11.970;2023-11-21T14:30:45;19.77;50.55
67064;SHT30;58476;48.072;11.970;2023-11-21T14:33:11;19.75;50.55
67064;SHT30;58476;48.072;11.970;2023-11-21T14:35:36;19.73;50.53
67064;SHT30;58476;48.072;11.970;2023-11-21T14:38:01;19.75;50.63
67064;SHT30;58476;48.072;11.970;2023-11-21T14:40:27;19.73;50.62
67064;SHT30;58476;48.072;11.970;2023-11-21T14:42:52;19.71;50.60
67064;SHT30;58476;48.072;11.970;2023-11-21T14:45:19;19.71;50.58
67064;SHT30;58476;48.072;11.970;2023-11-21T14:47:44;19.70;50.51
67064;SHT30;58476;48.072;11.970;2023-11-21T14:50:10;19.71;50.60
67064;SHT30;58476;48.072;11.970;2023-11-21T14:52:35;19.68;50.66
67064;SHT30;58476;48.072;11.970;2023-11-21T14:55:01;19.70;50.56
67064;SHT30;58476;48.072;11.970;2023-11-21T14:57:26;19.70;50.66
67064;SHT30;58476;48.072;11.970;2023-11-21T14:59:52;19.68;50.63
67064;SHT30;58476;48.072;11.970;2023-11-21T15:02:20;19.68;50.75
67064;SHT30;58476;48.072;11.970;2023-11-21T15:04:45;19.70;50.74
67064;SHT30;58476;48.072;11.970;2023-11-21T15:07:10;19.71;50.62
67064;SHT30;58476;48.072;11.970;2023-11-21T15:09:36;19.71;50.67
67064;SHT30;58476;48.072;11.970;2023-11-21T15:12:02;19.78;50.63
67064;SHT30;58476;48.072;11.970;2023-11-21T15:14:27;19.87;51.16
67064;SHT30;58476;48.072;11.970;2023-11-21T15:16:53;19.89;51.13
67064;SHT30;58476;48.072;11.970;2023-11-21T15:19:18;19.95;51.04